createdAt,value
2023-05-22T00:00:39.171Z,4.40
2023-05-22T00:01:38.912Z,4.10
2023-05-22T00:02:39.164Z,4.30
2023-05-22T00:03:38.883Z,4.60
2023-05-22T00:04:38.936Z,4.30
2023-05-22T00:05:38.919Z,3.80
2023-05-22T00:06:38.844Z,4.30
2023-05-22T00:07:38.853Z,4.70
2023-05-22T00:08:38.819Z,4.00
2023-05-22T00:09:38.808Z,4.20
2023-05-22T00:10:39.035Z,4.10
2023-05-22T00:11:38.780Z,4.30
2023-05-22T00:12:38.810Z,3.90
2023-05-22T00:13:38.756Z,3.70
2023-05-22T00:14:38.759Z,4.30
2023-05-22T00:15:38.741Z,4.30
2023-05-22T00:16:38.769Z,4.30
2023-05-22T00:17:38.767Z,4.20
2023-05-22T00:18:38.714Z,4.10
2023-05-22T00:19:38.763Z,4.10
2023-05-22T00:20:39.435Z,4.50
2023-05-22T00:21:38.737Z,4.40
2023-05-22T00:22:38.679Z,4.60
2023-05-22T00:23:38.661Z,4.70
2023-05-22T00:24:38.652Z,3.90
2023-05-22T00:25:38.641Z,4.40
2023-05-22T00:26:38.646Z,4.10
2023-05-22T00:27:38.619Z,4.20
2023-05-22T00:28:38.604Z,4.50
2023-05-22T00:29:38.592Z,4.30
2023-05-22T00:30:38.962Z,4.40
2023-05-22T00:31:38.598Z,5.00
2023-05-22T00:32:38.623Z,5.10
2023-05-22T00:33:38.558Z,4.50
2023-05-22T00:34:38.593Z,4.50
2023-05-22T00:35:38.549Z,5.00
2023-05-22T00:36:38.534Z,5.00
2023-05-22T00:37:38.513Z,4.70
2023-05-22T00:38:38.508Z,4.60
2023-05-22T00:39:38.496Z,4.90
2023-05-22T00:40:38.699Z,5.20
2023-05-22T00:41:38.474Z,4.60
2023-05-22T00:42:38.466Z,4.60
2023-05-22T00:43:38.435Z,4.70
2023-05-22T00:44:38.464Z,4.70
2023-05-22T00:45:38.427Z,4.40
2023-05-22T00:46:38.494Z,4.70
2023-05-22T00:47:38.413Z,4.60
2023-05-22T00:48:38.391Z,4.80
2023-05-22T00:49:38.416Z,4.20
2023-05-22T00:50:38.741Z,4.70
2023-05-22T00:51:38.364Z,4.60
2023-05-22T00:52:38.359Z,5.40
2023-05-22T00:53:38.335Z,4.10
2023-05-22T00:54:38.350Z,4.70
2023-05-22T00:55:38.316Z,4.70
2023-05-22T00:56:38.309Z,4.70
2023-05-22T00:57:38.304Z,4.80
2023-05-22T00:58:38.302Z,4.40
2023-05-22T00:59:38.281Z,4.80
2023-05-22T01:00:38.474Z,4.80
2023-05-22T01:01:38.342Z,4.60
2023-05-22T01:02:38.352Z,5.20
2023-05-22T01:03:38.300Z,4.50
2023-05-22T01:04:38.224Z,4.60
2023-05-22T01:05:38.210Z,4.80
2023-05-22T01:06:38.198Z,4.80
2023-05-22T01:07:38.183Z,4.40
2023-05-22T01:08:38.205Z,4.40
2023-05-22T01:09:38.165Z,4.30
2023-05-22T01:10:38.326Z,4.30
2023-05-22T01:11:38.142Z,4.60
2023-05-22T01:12:38.145Z,4.70
2023-05-22T01:13:38.140Z,4.80
2023-05-22T01:14:38.122Z,5.00
2023-05-22T01:15:38.100Z,4.80
2023-05-22T01:16:38.117Z,4.10
2023-05-22T01:17:38.138Z,4.00
2023-05-22T01:18:38.102Z,4.50
2023-05-22T01:19:38.072Z,4.30
2023-05-22T01:20:38.197Z,4.90
2023-05-22T01:21:38.031Z,5.10
2023-05-22T01:22:38.058Z,4.80
2023-05-22T01:23:38.009Z,4.30
2023-05-22T01:24:38.006Z,4.30
2023-05-22T01:25:38.001Z,5.20
2023-05-22T01:26:38.016Z,4.70
2023-05-22T01:27:37.980Z,4.40
2023-05-22T01:28:37.959Z,4.40
2023-05-22T01:29:37.970Z,4.70
2023-05-22T01:30:38.102Z,4.10
2023-05-22T01:31:37.946Z,4.30
2023-05-22T01:32:37.996Z,4.60
2023-05-22T01:33:37.953Z,4.20
2023-05-22T01:34:37.903Z,4.10
2023-05-22T01:35:37.884Z,4.40
2023-05-22T01:36:37.897Z,4.20
2023-05-22T01:37:37.870Z,4.50
2023-05-22T01:38:37.858Z,4.70
2023-05-22T01:39:37.850Z,4.70
2023-05-22T01:40:38.039Z,4.70
2023-05-22T01:41:37.851Z,4.40
2023-05-22T01:42:37.809Z,4.30
2023-05-22T01:43:37.794Z,4.80
2023-05-22T01:44:37.788Z,5.00
2023-05-22T01:45:37.836Z,4.90
2023-05-22T01:46:37.766Z,4.70
2023-05-22T01:47:37.808Z,4.60
2023-05-22T01:48:37.763Z,4.90
2023-05-22T01:49:37.741Z,4.40
2023-05-22T01:50:38.068Z,4.80
2023-05-22T01:51:37.715Z,5.00
2023-05-22T01:52:37.710Z,4.80
2023-05-22T01:53:37.684Z,4.70
2023-05-22T01:54:37.723Z,4.50
2023-05-22T01:55:37.706Z,4.90
2023-05-22T01:56:37.667Z,5.00
2023-05-22T01:57:37.651Z,5.00
2023-05-22T01:58:37.662Z,4.50
2023-05-22T01:59:37.668Z,4.90
2023-05-22T02:00:37.726Z,4.80
2023-05-22T02:01:37.656Z,4.30
2023-05-22T02:02:37.737Z,4.60
2023-05-22T02:03:37.724Z,4.70
2023-05-22T02:04:37.612Z,4.20
2023-05-22T02:05:37.576Z,5.00
2023-05-22T02:06:37.554Z,4.50
2023-05-22T02:07:37.549Z,4.40
2023-05-22T02:08:37.596Z,5.10
2023-05-22T02:09:37.527Z,4.60
2023-05-22T02:10:37.753Z,4.50
2023-05-22T02:11:37.501Z,4.30
2023-05-22T02:12:37.503Z,4.50
2023-05-22T02:13:37.520Z,4.40
2023-05-22T02:14:37.480Z,4.70
2023-05-22T02:15:37.504Z,4.90
2023-05-22T02:16:37.449Z,4.80
2023-05-22T02:17:37.559Z,4.90
2023-05-22T02:18:37.446Z,4.40
2023-05-22T02:19:37.458Z,4.50
2023-05-22T02:20:37.545Z,4.10
2023-05-22T02:21:37.403Z,4.40
2023-05-22T02:22:37.413Z,4.60
2023-05-22T02:23:37.395Z,5.00
2023-05-22T02:24:37.355Z,4.90
2023-05-22T02:25:37.361Z,4.60
2023-05-22T02:26:37.340Z,5.10
2023-05-22T02:27:37.356Z,4.40
2023-05-22T02:28:37.311Z,4.40
2023-05-22T02:29:37.322Z,3.70
2023-05-22T02:30:37.466Z,4.50
2023-05-22T02:31:37.331Z,4.20
2023-05-22T02:32:37.312Z,4.30
2023-05-22T02:33:37.276Z,4.00
2023-05-22T02:34:37.258Z,4.50
2023-05-22T02:35:37.262Z,4.40
2023-05-22T02:36:37.281Z,4.70
2023-05-22T02:37:37.243Z,4.70
2023-05-22T02:38:37.213Z,4.30
2023-05-22T02:39:37.228Z,4.70
2023-05-22T02:40:37.325Z,4.30
2023-05-22T02:41:37.201Z,3.70
2023-05-22T02:42:37.177Z,4.30
2023-05-22T02:43:37.162Z,4.30
2023-05-22T02:44:37.156Z,4.70
2023-05-22T02:45:37.085Z,4.60
2023-05-22T02:46:37.206Z,4.20
2023-05-22T02:47:37.156Z,5.00
2023-05-22T02:48:37.099Z,4.20
2023-05-22T02:49:37.093Z,4.90
2023-05-22T02:50:37.242Z,4.10
2023-05-22T02:51:37.040Z,5.50
2023-05-22T02:52:37.037Z,4.70
2023-05-22T02:53:37.001Z,4.30
2023-05-22T02:54:37.054Z,4.60
2023-05-22T02:55:37.064Z,5.20
2023-05-22T02:56:36.974Z,4.70
2023-05-22T02:57:36.957Z,4.50
2023-05-22T02:58:36.944Z,4.90
2023-05-22T02:59:36.986Z,4.50
2023-05-22T03:00:37.092Z,4.60
2023-05-22T03:01:36.980Z,4.10
2023-05-22T03:02:37.017Z,4.00
2023-05-22T03:03:37.009Z,4.40
2023-05-22T03:04:36.902Z,4.20
2023-05-22T03:05:36.891Z,4.20
2023-05-22T03:06:36.858Z,3.70
2023-05-22T03:07:36.843Z,4.30
2023-05-22T03:08:36.829Z,4.10
2023-05-22T03:09:36.865Z,3.90
2023-05-22T03:10:36.985Z,3.80
2023-05-22T03:11:36.807Z,3.90
2023-05-22T03:12:36.786Z,3.40
2023-05-22T03:13:36.792Z,4.00
2023-05-22T03:14:36.773Z,3.80
2023-05-22T03:15:36.772Z,3.60
2023-05-22T03:16:36.806Z,4.40
2023-05-22T03:17:36.796Z,4.10
2023-05-22T03:18:36.726Z,4.10
2023-05-22T03:19:36.749Z,4.20
2023-05-22T03:20:37.055Z,3.80
2023-05-22T03:21:36.693Z,4.10
2023-05-22T03:22:36.678Z,4.00
2023-05-22T03:23:36.704Z,4.40
2023-05-22T03:24:36.674Z,5.00
2023-05-22T03:25:36.668Z,4.60
2023-05-22T03:26:36.631Z,4.70
2023-05-22T03:27:36.621Z,4.70
2023-05-22T03:28:36.704Z,5.40
2023-05-22T03:29:36.635Z,4.40
2023-05-22T03:30:36.606Z,4.40
2023-05-22T03:31:36.620Z,4.50
2023-05-22T03:32:36.596Z,4.30
2023-05-22T03:33:36.630Z,4.50
2023-05-22T03:34:36.586Z,5.10
2023-05-22T03:35:36.612Z,4.50
2023-05-22T03:36:36.540Z,4.30
2023-05-22T03:37:36.547Z,4.70
2023-05-22T03:38:36.520Z,4.70
2023-05-22T03:39:36.501Z,4.30
2023-05-22T03:40:36.571Z,3.90
2023-05-22T03:41:36.480Z,4.30
2023-05-22T03:42:36.485Z,4.70
2023-05-22T03:43:36.485Z,4.70
2023-05-22T03:44:36.439Z,4.70
2023-05-22T03:45:36.458Z,4.70
2023-05-22T03:46:36.424Z,4.20
2023-05-22T03:47:36.446Z,4.70
2023-05-22T03:48:36.403Z,4.70
2023-05-22T03:49:36.408Z,4.90
2023-05-22T03:50:36.418Z,5.10
2023-05-22T03:51:36.371Z,4.60
2023-05-22T03:52:36.380Z,4.80
2023-05-22T03:53:36.337Z,5.20
2023-05-22T03:54:36.329Z,5.00
2023-05-22T03:55:36.335Z,5.00
2023-05-22T03:56:36.364Z,4.90
2023-05-22T03:57:36.321Z,4.80
2023-05-22T03:58:36.294Z,5.10
2023-05-22T03:59:36.282Z,4.80
2023-05-22T04:00:36.261Z,5.20
2023-05-22T04:01:36.275Z,4.70
2023-05-22T04:02:36.286Z,5.10
2023-05-22T04:03:36.258Z,5.30
2023-05-22T04:04:36.277Z,4.60
2023-05-22T04:05:36.266Z,5.10
2023-05-22T04:06:36.215Z,5.00
2023-05-22T04:07:36.204Z,4.60
2023-05-22T04:08:36.174Z,4.80
2023-05-22T04:09:36.175Z,3.80
2023-05-22T04:10:36.214Z,4.10
2023-05-22T04:11:36.165Z,4.40
2023-05-22T04:12:36.140Z,4.40
2023-05-22T04:13:36.138Z,4.00
2023-05-22T04:14:36.110Z,3.90
2023-05-22T04:15:36.143Z,4.50
2023-05-22T04:16:36.086Z,4.80
2023-05-22T04:17:36.133Z,4.50
2023-05-22T04:18:36.064Z,4.60
2023-05-22T04:19:36.097Z,6.00
2023-05-22T04:20:36.071Z,4.50
2023-05-22T04:21:36.034Z,4.00
2023-05-22T04:22:36.015Z,4.40
2023-05-22T04:23:36.018Z,4.50
2023-05-22T04:24:36.022Z,4.70
2023-05-22T04:25:36.015Z,5.20
2023-05-22T04:26:35.996Z,4.80
2023-05-22T04:27:35.974Z,4.70
2023-05-22T04:28:35.960Z,5.30
2023-05-22T04:29:36.299Z,4.90
2023-05-22T04:30:35.941Z,5.00
2023-05-22T04:31:36.087Z,5.00
2023-05-22T04:32:35.978Z,4.60
2023-05-22T04:33:35.917Z,4.90
2023-05-22T04:34:35.959Z,5.30
2023-05-22T04:35:35.886Z,5.90
2023-05-22T04:36:35.901Z,5.90
2023-05-22T04:37:35.886Z,5.40
2023-05-22T04:38:35.889Z,5.10
2023-05-22T04:39:35.866Z,5.00
2023-05-22T04:40:35.849Z,5.60
2023-05-22T04:41:35.837Z,5.40
2023-05-22T04:42:35.831Z,5.10
2023-05-22T04:43:35.840Z,4.80
2023-05-22T04:44:35.788Z,4.90
2023-05-22T04:45:35.791Z,4.30
2023-05-22T04:46:35.794Z,5.30
2023-05-22T04:47:35.807Z,5.30
2023-05-22T04:48:35.775Z,5.10
2023-05-22T04:49:35.739Z,4.80
2023-05-22T04:50:35.761Z,5.00
2023-05-22T04:51:35.730Z,5.00
2023-05-22T04:52:35.718Z,4.70
2023-05-22T04:53:35.724Z,4.60
2023-05-22T04:54:35.686Z,4.50
2023-05-22T04:55:35.693Z,5.20
2023-05-22T04:56:37.233Z,5.40
2023-05-22T04:57:35.676Z,4.90
2023-05-22T04:58:35.644Z,4.80
2023-05-22T04:59:35.657Z,5.00
2023-05-22T05:00:35.658Z,4.50
2023-05-22T05:01:35.717Z,5.20
2023-05-22T05:02:35.663Z,5.30
2023-05-22T05:03:35.632Z,4.60
2023-05-22T05:04:35.572Z,4.60
2023-05-22T05:05:35.584Z,4.50
2023-05-22T05:06:35.566Z,5.00
2023-05-22T05:07:35.581Z,5.20
2023-05-22T05:08:35.549Z,5.60
2023-05-22T05:09:35.526Z,5.60
2023-05-22T05:10:35.529Z,5.40
2023-05-22T05:11:35.531Z,5.00
2023-05-22T05:12:35.476Z,4.40
2023-05-22T05:13:35.490Z,4.80
2023-05-22T05:14:35.462Z,4.90
2023-05-22T05:15:35.462Z,4.70
2023-05-22T05:16:35.496Z,4.70
2023-05-22T05:17:35.498Z,5.20
2023-05-22T05:18:35.418Z,4.90
2023-05-22T05:19:37.010Z,4.60
2023-05-22T05:20:35.419Z,5.40
2023-05-22T05:21:35.406Z,4.70
2023-05-22T05:22:35.391Z,4.60
2023-05-22T05:23:35.395Z,4.40
2023-05-22T05:24:35.359Z,4.80
2023-05-22T05:25:35.382Z,4.90
2023-05-22T05:26:35.355Z,4.50
2023-05-22T05:27:35.343Z,4.40
2023-05-22T05:28:35.310Z,4.90
2023-05-22T05:29:35.335Z,4.80
2023-05-22T05:30:35.313Z,4.50
2023-05-22T05:31:35.342Z,4.90
2023-05-22T05:32:35.340Z,5.00
2023-05-22T05:33:35.267Z,4.40
2023-05-22T05:34:35.272Z,4.80
2023-05-22T05:35:35.265Z,4.10
2023-05-22T05:36:35.227Z,4.30
2023-05-22T05:37:35.263Z,4.30
2023-05-22T05:38:35.206Z,4.70
2023-05-22T05:39:35.224Z,5.00
2023-05-22T05:40:35.184Z,4.20
2023-05-22T05:41:35.182Z,4.10
2023-05-22T05:42:35.164Z,4.70
2023-05-22T05:43:35.187Z,4.70
2023-05-22T05:44:35.241Z,5.10
2023-05-22T05:45:35.154Z,4.70
2023-05-22T05:46:35.147Z,4.50
2023-05-22T05:47:35.189Z,4.20
2023-05-22T05:48:35.116Z,4.30
2023-05-22T05:49:35.988Z,4.60
2023-05-22T05:50:35.076Z,5.10
2023-05-22T05:51:35.073Z,4.30
2023-05-22T05:52:35.066Z,4.20
2023-05-22T05:53:35.071Z,4.20
2023-05-22T05:54:35.062Z,4.40
2023-05-22T05:55:35.035Z,4.20
2023-05-22T05:56:35.026Z,4.30
2023-05-22T05:57:35.051Z,4.60
2023-05-22T05:58:35.035Z,4.70
2023-05-22T05:59:35.003Z,4.40
2023-05-22T06:00:34.974Z,5.00
2023-05-22T06:01:34.974Z,4.50
2023-05-22T06:02:35.024Z,4.40
2023-05-22T06:03:35.151Z,4.50
2023-05-22T06:04:34.928Z,4.80
2023-05-22T06:05:34.983Z,4.50
2023-05-22T06:06:34.922Z,4.30
2023-05-22T06:07:34.936Z,4.20
2023-05-22T06:08:34.895Z,4.90
2023-05-22T06:09:34.882Z,4.40
2023-05-22T06:10:34.862Z,5.30
2023-05-22T06:11:34.905Z,4.60
2023-05-22T06:12:34.864Z,4.90
2023-05-22T06:13:34.846Z,4.60
2023-05-22T06:14:34.839Z,4.30
2023-05-22T06:15:34.818Z,4.60
2023-05-22T06:16:34.876Z,4.20
2023-05-22T06:17:34.844Z,4.30
2023-05-22T06:18:34.800Z,4.70
2023-05-22T06:19:34.882Z,4.50
2023-05-22T06:20:34.773Z,4.20
2023-05-22T06:21:34.809Z,4.80
2023-05-22T06:22:34.746Z,4.10
2023-05-22T06:23:34.733Z,3.80
2023-05-22T06:24:34.724Z,4.20
2023-05-22T06:25:34.742Z,4.30
2023-05-22T06:26:34.722Z,4.00
2023-05-22T06:27:34.701Z,4.10
2023-05-22T06:28:34.669Z,4.20
2023-05-22T06:29:34.666Z,4.30
2023-05-22T06:30:40.239Z,4.40
2023-05-22T06:31:34.688Z,4.90
2023-05-22T06:32:34.772Z,4.60
2023-05-22T06:33:34.789Z,4.10
2023-05-22T06:34:34.605Z,4.60
2023-05-22T06:35:34.623Z,4.10
2023-05-22T06:36:34.612Z,4.20
2023-05-22T06:37:34.595Z,4.20
2023-05-22T06:38:34.570Z,3.80
2023-05-22T06:39:34.559Z,4.00
2023-05-22T06:40:34.573Z,4.50
2023-05-22T06:41:34.573Z,4.10
2023-05-22T06:42:34.529Z,5.10
2023-05-22T06:43:34.525Z,4.50
2023-05-22T06:44:34.629Z,4.30
2023-05-22T06:45:34.542Z,4.00
2023-05-22T06:46:34.664Z,4.30
2023-05-22T06:47:34.494Z,4.20
2023-05-22T06:48:34.466Z,4.60
2023-05-22T06:49:34.474Z,4.30
2023-05-22T06:50:34.462Z,4.40
2023-05-22T06:51:34.430Z,5.00
2023-05-22T06:52:34.424Z,4.00
2023-05-22T06:53:34.403Z,4.30
2023-05-22T06:54:34.424Z,4.60
2023-05-22T06:55:34.388Z,4.30
2023-05-22T06:56:34.388Z,4.70
2023-05-22T06:57:34.378Z,4.40
2023-05-22T06:58:34.378Z,4.20
2023-05-22T06:59:34.392Z,4.40
2023-05-22T07:00:34.367Z,4.40
2023-05-22T07:01:34.370Z,4.60
2023-05-22T07:02:34.428Z,5.20
2023-05-22T07:03:34.329Z,4.30
2023-05-22T07:04:34.297Z,4.90
2023-05-22T07:05:34.354Z,4.30
2023-05-22T07:06:34.275Z,4.60
2023-05-22T07:07:34.283Z,4.60
2023-05-22T07:08:34.278Z,4.60
2023-05-22T07:09:34.253Z,4.50
2023-05-22T07:10:34.235Z,4.00
2023-05-22T07:11:34.215Z,4.20
2023-05-22T07:12:34.224Z,3.80
2023-05-22T07:13:34.201Z,4.60
2023-05-22T07:14:34.195Z,3.60
2023-05-22T07:15:34.173Z,4.10
2023-05-22T07:16:34.233Z,4.10
2023-05-22T07:17:34.213Z,4.20
2023-05-22T07:18:34.151Z,4.60
2023-05-22T07:19:34.162Z,3.90
2023-05-22T07:20:34.148Z,4.10
2023-05-22T07:21:34.131Z,4.10
2023-05-22T07:22:34.138Z,4.40
2023-05-22T07:23:34.098Z,4.50
2023-05-22T07:24:34.088Z,4.40
2023-05-22T07:25:34.087Z,4.40
2023-05-22T07:26:34.237Z,4.40
2023-05-22T07:27:34.042Z,4.00
2023-05-22T07:28:34.042Z,4.20
2023-05-22T07:29:34.016Z,4.30
2023-05-22T07:30:34.023Z,4.60
2023-05-22T07:31:34.381Z,4.10
2023-05-22T07:32:34.016Z,4.10
2023-05-22T07:33:33.983Z,4.30
2023-05-22T07:34:34.008Z,4.60
2023-05-22T07:35:33.977Z,4.00
2023-05-22T07:36:33.995Z,3.80
2023-05-22T07:37:33.967Z,4.30
2023-05-22T07:38:33.937Z,3.90
2023-05-22T07:39:33.926Z,4.40
2023-05-22T07:40:33.949Z,3.80
2023-05-22T07:41:33.905Z,3.70
2023-05-22T07:42:33.910Z,3.70
2023-05-22T07:43:33.882Z,3.90
2023-05-22T07:44:33.867Z,3.90
2023-05-22T07:45:33.889Z,4.30
2023-05-22T07:46:33.876Z,4.20
2023-05-22T07:47:34.008Z,4.30
2023-05-22T07:48:33.841Z,4.30
2023-05-22T07:49:33.801Z,3.90
2023-05-22T07:50:33.822Z,4.20
2023-05-22T07:51:33.794Z,4.30
2023-05-22T07:52:33.799Z,4.10
2023-05-22T07:53:33.773Z,4.10
2023-05-22T07:54:33.777Z,4.00
2023-05-22T07:55:33.782Z,4.20
2023-05-22T07:56:33.737Z,4.50
2023-05-22T07:57:33.761Z,4.00
2023-05-22T07:58:33.724Z,4.20
2023-05-22T07:59:34.198Z,4.40
2023-05-22T08:00:33.708Z,3.70
2023-05-22T08:01:33.696Z,4.00
2023-05-22T08:02:33.817Z,3.80
2023-05-22T08:03:34.022Z,4.20
2023-05-22T08:04:33.826Z,3.90
2023-05-22T08:05:33.689Z,4.40
2023-05-22T08:06:33.629Z,4.30
2023-05-22T08:07:33.637Z,4.50
2023-05-22T08:08:33.629Z,4.40
2023-05-22T08:09:33.586Z,3.60
2023-05-22T08:10:52.250Z,4.10
2023-05-22T08:11:33.574Z,3.60
2023-05-22T08:12:33.562Z,3.70
2023-05-22T08:13:33.570Z,3.70
2023-05-22T08:14:33.547Z,3.70
2023-05-22T08:15:33.519Z,4.40
2023-05-22T08:16:33.579Z,4.00
2023-05-22T08:17:33.598Z,3.60
2023-05-22T08:18:33.540Z,3.80
2023-05-22T08:19:33.603Z,3.40
2023-05-22T08:20:33.532Z,4.20
2023-05-22T08:21:33.468Z,3.90
2023-05-22T08:22:33.492Z,3.40
2023-05-22T08:23:33.456Z,3.80
2023-05-22T08:24:33.440Z,4.10
2023-05-22T08:25:33.427Z,4.00
2023-05-22T08:26:33.467Z,3.70
2023-05-22T08:27:33.412Z,4.30
2023-05-22T08:28:33.392Z,4.00
2023-05-22T08:29:33.399Z,3.60
2023-05-22T08:30:33.383Z,3.80
2023-05-22T08:31:33.427Z,3.80
2023-05-22T08:32:33.389Z,4.00
2023-05-22T08:33:33.338Z,3.40
2023-05-22T08:34:33.334Z,3.60
2023-05-22T08:35:33.335Z,3.50
2023-05-22T08:36:33.322Z,3.70
2023-05-22T08:37:33.303Z,3.30
2023-05-22T08:38:33.289Z,3.40
2023-05-22T08:39:33.268Z,3.30
2023-05-22T08:40:33.267Z,3.50
2023-05-22T08:41:33.280Z,3.20
2023-05-22T08:42:33.243Z,4.10
2023-05-22T08:43:33.240Z,3.60
2023-05-22T08:44:33.280Z,3.70
2023-05-22T08:45:33.233Z,3.40
2023-05-22T08:46:33.236Z,3.60
2023-05-22T08:47:33.261Z,3.50
2023-05-22T08:48:33.205Z,3.30
2023-05-22T08:49:33.176Z,3.70
2023-05-22T08:50:33.186Z,3.70
2023-05-22T08:51:33.146Z,3.50
2023-05-22T08:52:33.159Z,3.50
2023-05-22T08:53:33.132Z,3.70
2023-05-22T08:54:33.121Z,3.60
2023-05-22T08:55:33.181Z,3.80
2023-05-22T08:56:35.236Z,3.40
2023-05-22T08:57:33.085Z,4.00
2023-05-22T08:58:33.138Z,3.70
2023-05-22T08:59:33.110Z,3.80
2023-05-22T09:00:33.091Z,3.70
2023-05-22T09:01:33.118Z,3.80
2023-05-22T09:02:33.064Z,3.40
2023-05-22T09:03:33.334Z,3.70
2023-05-22T09:04:33.028Z,3.80
2023-05-22T09:05:33.000Z,4.30
2023-05-22T09:06:33.037Z,3.80
2023-05-22T09:07:33.004Z,3.80
2023-05-22T09:08:32.986Z,3.50
2023-05-22T09:09:33.535Z,3.60
2023-05-22T09:10:33.142Z,3.80
2023-05-22T09:11:33.036Z,3.50
2023-05-22T09:12:32.949Z,3.70
2023-05-22T09:13:33.024Z,3.60
2023-05-22T09:14:32.939Z,4.10
2023-05-22T09:15:33.034Z,3.70
2023-05-22T09:16:32.930Z,3.90
2023-05-22T09:17:32.928Z,3.80
2023-05-22T09:18:32.894Z,3.70
2023-05-22T09:19:33.358Z,3.60
2023-05-22T09:20:32.961Z,3.40
2023-05-22T09:21:32.839Z,3.50
2023-05-22T09:22:32.834Z,3.40
2023-05-22T09:23:32.841Z,3.80
2023-05-22T09:24:32.813Z,3.40
2023-05-22T09:25:32.811Z,3.50
2023-05-22T09:26:32.788Z,3.70
2023-05-22T09:27:32.958Z,3.40
2023-05-22T09:28:32.805Z,3.60
2023-05-22T09:29:32.792Z,3.80
2023-05-22T09:30:32.863Z,3.70
2023-05-22T09:31:32.757Z,3.70
2023-05-22T09:32:32.772Z,3.30
2023-05-22T09:33:32.912Z,3.70
2023-05-22T09:34:32.707Z,3.40
2023-05-22T09:35:32.686Z,3.70
2023-05-22T09:36:32.682Z,3.50
2023-05-22T09:37:32.826Z,3.50
2023-05-22T09:38:32.666Z,3.70
2023-05-22T09:39:32.652Z,3.70
2023-05-22T09:40:32.659Z,3.60
2023-05-22T09:41:32.646Z,3.40
2023-05-22T09:42:32.648Z,3.20
2023-05-22T09:43:32.618Z,3.20
2023-05-22T09:44:32.746Z,3.20
2023-05-22T09:45:32.604Z,3.60
2023-05-22T09:46:32.666Z,3.50
2023-05-22T09:47:32.691Z,3.10
2023-05-22T09:48:32.576Z,3.40
2023-05-22T09:49:32.563Z,3.00
2023-05-22T09:50:32.563Z,2.60
2023-05-22T09:51:32.551Z,2.90
2023-05-22T09:52:32.525Z,3.00
2023-05-22T09:53:32.519Z,3.20
2023-05-22T09:54:32.619Z,3.30
2023-05-22T09:55:32.564Z,3.20
2023-05-22T09:56:39.221Z,3.20
2023-05-22T09:57:32.501Z,3.10
2023-05-22T09:58:32.501Z,3.40
2023-05-22T09:59:32.464Z,3.30
2023-05-22T10:00:32.453Z,3.60
2023-05-22T10:01:32.470Z,3.40
2023-05-22T10:02:32.489Z,3.10
2023-05-22T10:03:32.414Z,3.20
2023-05-22T10:04:32.517Z,3.60
2023-05-22T10:05:32.510Z,2.90
2023-05-22T10:06:32.401Z,3.40
2023-05-22T10:07:32.380Z,3.40
2023-05-22T10:08:32.371Z,3.30
2023-05-22T10:09:32.387Z,3.30
2023-05-22T10:10:32.349Z,3.40
2023-05-22T10:11:32.321Z,3.50
2023-05-22T10:12:32.334Z,3.60
2023-05-22T10:13:32.296Z,3.50
2023-05-22T10:14:32.324Z,3.40
2023-05-22T10:15:32.286Z,3.30
2023-05-22T10:16:32.359Z,3.50
2023-05-22T10:17:32.328Z,3.70
2023-05-22T10:18:32.276Z,4.40
2023-05-22T10:19:33.335Z,3.70
2023-05-22T10:20:32.241Z,3.30
2023-05-22T10:21:32.216Z,4.60
2023-05-22T10:22:32.223Z,3.40
2023-05-22T10:23:32.216Z,3.70
2023-05-22T10:24:32.182Z,3.10
2023-05-22T10:25:32.173Z,3.00
2023-05-22T10:26:32.191Z,3.60
2023-05-22T10:27:32.148Z,3.00
2023-05-22T10:28:32.181Z,3.10
2023-05-22T10:29:32.154Z,3.70
2023-05-22T10:30:32.142Z,4.00
2023-05-22T10:31:32.125Z,3.20
2023-05-22T10:32:32.205Z,3.00
2023-05-22T10:33:32.166Z,3.40
2023-05-22T10:34:32.117Z,3.40
2023-05-22T10:35:32.078Z,4.70
2023-05-22T10:36:32.072Z,3.50
2023-05-22T10:37:32.140Z,3.10
2023-05-22T10:38:32.054Z,3.10
2023-05-22T10:39:32.045Z,3.50
2023-05-22T10:40:32.099Z,3.50
2023-05-22T10:41:32.064Z,3.60
2023-05-22T10:42:32.049Z,3.00
2023-05-22T10:43:32.061Z,3.20
2023-05-22T10:44:31.991Z,3.30
2023-05-22T10:45:32.084Z,3.80
2023-05-22T10:46:32.056Z,3.00
2023-05-22T10:47:32.020Z,3.20
2023-05-22T10:48:31.938Z,3.40
2023-05-22T10:49:32.211Z,3.00
2023-05-22T10:50:32.063Z,3.80
2023-05-22T10:51:32.056Z,3.20
2023-05-22T10:52:32.032Z,3.30
2023-05-22T10:53:31.898Z,3.60
2023-05-22T10:54:31.891Z,3.50
2023-05-22T10:55:31.928Z,3.00
2023-05-22T10:56:31.880Z,3.40
2023-05-22T10:57:31.849Z,3.40
2023-05-22T10:58:31.834Z,3.70
2023-05-22T10:59:31.872Z,3.50
2023-05-22T11:00:31.874Z,3.80
2023-05-22T11:01:31.830Z,3.50
2023-05-22T11:02:31.887Z,3.30
2023-05-22T11:03:31.863Z,3.30
2023-05-22T11:04:31.875Z,3.30
2023-05-22T11:05:31.844Z,3.40
2023-05-22T11:06:31.747Z,3.50
2023-05-22T11:07:31.745Z,3.30
2023-05-22T11:08:31.732Z,3.50
2023-05-22T11:09:31.776Z,3.70
2023-05-22T11:10:31.726Z,4.10
2023-05-22T11:11:31.738Z,3.50
2023-05-22T11:12:31.704Z,3.60
2023-05-22T11:13:31.687Z,3.30
2023-05-22T11:14:31.687Z,3.90
2023-05-22T11:15:31.675Z,3.60
2023-05-22T11:16:31.695Z,3.80
2023-05-22T11:17:31.773Z,3.40
2023-05-22T11:18:31.625Z,3.80
2023-05-22T11:19:31.728Z,3.40
2023-05-22T11:20:31.617Z,3.60
2023-05-22T11:21:31.601Z,3.50
2023-05-22T11:22:31.593Z,3.70
2023-05-22T11:23:31.611Z,3.40
2023-05-22T11:24:31.590Z,3.50
2023-05-22T11:25:31.568Z,3.60
2023-05-22T11:26:31.568Z,3.80
2023-05-22T11:27:31.566Z,3.50
2023-05-22T11:28:31.582Z,3.60
2023-05-22T11:29:31.545Z,3.10
2023-05-22T11:30:31.518Z,3.70
2023-05-22T11:31:31.601Z,3.40
2023-05-22T11:32:31.569Z,3.60
2023-05-22T11:33:31.508Z,3.40
2023-05-22T11:34:31.506Z,3.60
2023-05-22T11:35:31.500Z,3.60
2023-05-22T11:36:31.448Z,3.40
2023-05-22T11:37:31.489Z,3.50
2023-05-22T11:38:31.452Z,3.90
2023-05-22T11:39:31.468Z,3.50
2023-05-22T11:40:31.418Z,3.70
2023-05-22T11:41:33.522Z,3.10
2023-05-22T11:42:31.405Z,3.70
2023-05-22T11:43:31.432Z,3.20
2023-05-22T11:44:31.381Z,3.40
2023-05-22T11:45:31.440Z,3.40
2023-05-22T11:46:31.458Z,3.40
2023-05-22T11:47:31.393Z,3.10
2023-05-22T11:48:31.323Z,2.80
2023-05-22T11:49:31.347Z,2.90
2023-05-22T11:50:43.597Z,3.20
2023-05-22T11:51:31.408Z,3.20
2023-05-22T11:52:31.467Z,3.20
2023-05-22T11:53:31.404Z,3.40
2023-05-22T11:54:31.274Z,3.10
2023-05-22T11:55:31.270Z,3.10
2023-05-22T11:56:31.256Z,3.20
2023-05-22T11:57:31.269Z,3.10
2023-05-22T11:58:31.244Z,2.90
2023-05-22T11:59:31.216Z,3.00
2023-05-22T12:00:31.369Z,3.60
2023-05-22T12:01:31.225Z,2.90
2023-05-22T12:02:31.308Z,3.20
2023-05-22T12:03:31.351Z,3.30
2023-05-22T12:04:31.195Z,2.80
2023-05-22T12:05:31.173Z,3.20
2023-05-22T12:06:31.226Z,3.20
2023-05-22T12:07:31.144Z,2.90
2023-05-22T12:08:31.136Z,3.30
2023-05-22T12:09:31.120Z,3.20
2023-05-22T12:10:31.124Z,3.40
2023-05-22T12:11:31.324Z,2.80
2023-05-22T12:12:31.074Z,3.10
2023-05-22T12:13:31.100Z,2.90
2023-05-22T12:14:31.070Z,2.70
2023-05-22T12:15:31.092Z,3.30
2023-05-22T12:16:31.050Z,2.90
2023-05-22T12:17:31.083Z,2.90
2023-05-22T12:18:31.034Z,3.10
2023-05-22T12:19:31.196Z,2.70
2023-05-22T12:20:31.069Z,3.00
2023-05-22T12:21:30.987Z,2.80
2023-05-22T12:22:30.980Z,2.70
2023-05-22T12:23:30.964Z,2.90
2023-05-22T12:24:31.000Z,3.00
2023-05-22T12:25:30.976Z,2.90
2023-05-22T12:26:30.938Z,2.80
2023-05-22T12:27:32.913Z,2.70
2023-05-22T12:28:30.957Z,2.90
2023-05-22T12:29:30.968Z,3.50
2023-05-22T12:30:31.005Z,2.90
2023-05-22T12:31:31.043Z,3.20
2023-05-22T12:32:31.042Z,3.00
2023-05-22T12:33:30.889Z,3.10
2023-05-22T12:34:30.886Z,3.20
2023-05-22T12:35:30.880Z,2.90
2023-05-22T12:36:30.837Z,3.00
2023-05-22T12:37:30.842Z,2.70
2023-05-22T12:38:32.441Z,3.20
2023-05-22T12:39:30.823Z,3.10
2023-05-22T12:40:30.809Z,3.00
2023-05-22T12:41:30.793Z,3.00
2023-05-22T12:42:30.775Z,3.00
2023-05-22T12:43:30.786Z,3.10
2023-05-22T12:44:30.750Z,2.80
2023-05-22T12:45:30.783Z,2.80
2023-05-22T12:46:30.785Z,2.90
2023-05-22T12:47:30.811Z,2.90
2023-05-22T12:48:30.752Z,3.20
2023-05-22T12:49:30.713Z,3.10
2023-05-22T12:50:30.691Z,3.40
2023-05-22T12:51:30.689Z,3.20
2023-05-22T12:52:30.704Z,2.90
2023-05-22T12:53:30.671Z,2.60
2023-05-22T12:54:30.650Z,2.90
2023-05-22T12:55:30.715Z,3.30
2023-05-22T12:56:30.637Z,3.30
2023-05-22T12:57:30.656Z,3.40
2023-05-22T12:58:30.605Z,2.70
2023-05-22T12:59:30.614Z,2.90
2023-05-22T13:00:30.638Z,2.70
2023-05-22T13:01:30.972Z,2.90
2023-05-22T13:02:30.606Z,3.10
2023-05-22T13:03:30.563Z,2.60
2023-05-22T13:04:30.581Z,3.00
2023-05-22T13:05:30.577Z,2.90
2023-05-22T13:06:30.731Z,2.90
2023-05-22T13:07:30.522Z,2.50
2023-05-22T13:08:30.498Z,2.80
2023-05-22T13:09:30.534Z,2.70
2023-05-22T13:10:30.512Z,2.60
2023-05-22T13:11:30.549Z,2.80
2023-05-22T13:12:30.481Z,3.10
2023-05-22T13:13:30.457Z,2.80
2023-05-22T13:14:30.438Z,2.70
2023-05-22T13:15:30.467Z,2.80
2023-05-22T13:16:30.533Z,2.90
2023-05-22T13:17:30.463Z,2.60
2023-05-22T13:18:30.432Z,2.90